createdAt,value
2023-05-23T00:01:55.122Z,16.86
2023-05-23T00:04:27.424Z,16.73
2023-05-23T00:06:56.955Z,17.42
2023-05-23T00:09:23.916Z,17.26
2023-05-23T00:11:50.715Z,17.14
2023-05-23T00:14:17.881Z,17.40
2023-05-23T00:16:46.493Z,17.64
2023-05-23T00:19:17.188Z,17.23
2023-05-23T00:21:48.328Z,17.04
2023-05-23T00:24:19.100Z,16.44
2023-05-23T00:26:48.868Z,16.71
2023-05-23T00:29:19.681Z,17.21
2023-05-23T00:31:47.352Z,16.50
2023-05-23T00:34:18.271Z,17.46
2023-05-23T00:36:50.546Z,17.64
2023-05-23T00:39:19.972Z,17.66
2023-05-23T00:41:52.945Z,17.04
2023-05-23T00:44:28.388Z,16.55
2023-05-23T00:46:56.658Z,17.36
2023-05-23T00:49:24.104Z,17.62
2023-05-23T00:51:52.188Z,17.08
2023-05-23T00:54:23.303Z,17.34
2023-05-23T00:56:50.303Z,16.00
2023-05-23T00:59:17.612Z,17.16
2023-05-23T01:01:47.541Z,17.30
2023-05-23T01:04:16.994Z,16.92
2023-05-23T01:06:49.512Z,17.71
2023-05-23T01:09:20.884Z,17.50
2023-05-23T01:12:03.059Z,17.40
2023-05-23T01:15:08.788Z,17.43
2023-05-23T01:17:46.054Z,17.32
2023-05-23T01:20:18.168Z,16.75
2023-05-23T01:22:57.285Z,17.29
2023-05-23T01:25:26.444Z,17.30
2023-05-23T01:27:57.356Z,17.26
2023-05-23T01:30:26.604Z,16.99
2023-05-23T01:32:57.704Z,17.28
2023-05-23T01:35:28.763Z,17.05
2023-05-23T01:37:56.286Z,17.20
2023-05-23T01:40:29.156Z,16.31
2023-05-23T01:42:59.664Z,17.06
2023-05-23T01:45:29.765Z,16.05
2023-05-23T01:47:57.429Z,16.78
2023-05-23T01:50:26.131Z,16.15
2023-05-23T01:52:56.159Z,16.57
2023-05-23T01:55:26.554Z,16.29
2023-05-23T01:57:57.314Z,16.26
2023-05-23T02:00:26.508Z,16.28
2023-05-23T02:02:55.684Z,16.65
2023-05-23T02:05:25.190Z,16.35
2023-05-23T02:07:52.132Z,16.64
2023-05-23T02:10:21.637Z,16.82
2023-05-23T02:12:51.175Z,16.74
2023-05-23T02:15:20.306Z,16.46
2023-05-23T02:17:52.511Z,16.86
2023-05-23T02:20:26.846Z,16.47
2023-05-23T02:22:58.477Z,12.97
2023-05-23T02:25:25.584Z,12.68
2023-05-23T02:27:54.943Z,12.57
2023-05-23T02:30:22.002Z,15.40
2023-05-23T02:32:50.038Z,16.46
2023-05-23T02:35:19.278Z,16.18
2023-05-23T02:37:50.571Z,16.13
2023-05-23T02:40:22.156Z,16.58
2023-05-23T02:42:48.999Z,16.00
2023-05-23T02:45:16.494Z,15.47
2023-05-23T02:47:49.688Z,16.36
2023-05-23T02:50:16.696Z,16.00
2023-05-23T02:52:46.122Z,15.92
2023-05-23T02:55:13.054Z,15.79
2023-05-23T03:00:25.099Z,15.67
2023-05-23T03:02:57.557Z,15.96
2023-05-23T03:05:24.201Z,16.51
2023-05-23T03:07:55.542Z,16.32
2023-05-23T03:10:24.866Z,16.32
2023-05-23T03:12:51.587Z,16.43
2023-05-23T03:15:36.452Z,15.75
2023-05-23T03:18:03.755Z,16.05
2023-05-23T03:20:31.690Z,16.47
2023-05-23T03:23:03.913Z,15.96
2023-05-23T03:25:33.052Z,16.30
2023-05-23T03:28:02.294Z,16.47
2023-05-23T03:30:32.057Z,16.36
2023-05-23T03:32:58.917Z,15.76
2023-05-23T03:35:34.038Z,15.74
2023-05-23T03:38:06.241Z,16.02
2023-05-23T03:40:33.173Z,16.02
2023-05-23T03:43:06.699Z,16.10
2023-05-23T03:45:36.437Z,15.95
2023-05-23T03:48:10.975Z,16.06
2023-05-23T03:50:40.087Z,16.64
2023-05-23T03:53:07.448Z,16.26
2023-05-23T03:55:38.946Z,16.10
2023-05-23T03:58:08.489Z,15.95
2023-05-23T04:00:35.229Z,16.12
2023-05-23T04:03:05.103Z,16.35
2023-05-23T04:05:46.254Z,15.49
2023-05-23T04:08:16.028Z,16.06
2023-05-23T04:10:43.006Z,16.46
2023-05-23T04:13:12.417Z,16.45
2023-05-23T04:15:43.429Z,16.34
2023-05-23T04:18:17.753Z,16.64
2023-05-23T04:20:45.100Z,16.22
2023-05-23T04:23:12.245Z,16.65
2023-05-23T04:25:48.437Z,16.56
2023-05-23T04:28:23.564Z,16.29
2023-05-23T04:30:50.330Z,16.90
2023-05-23T04:33:22.051Z,16.64
2023-05-23T04:35:53.807Z,16.62
2023-05-23T04:38:23.288Z,15.92
2023-05-23T04:40:52.736Z,15.28
2023-05-23T04:43:44.872Z,16.97
2023-05-23T04:46:35.505Z,13.79
2023-05-23T04:49:28.741Z,14.43
2023-05-23T04:51:56.104Z,12.61
2023-05-23T04:54:31.733Z,14.79
2023-05-23T04:57:08.391Z,16.96
2023-05-23T04:59:52.618Z,14.49
2023-05-23T05:02:27.630Z,14.56
2023-05-23T05:04:54.802Z,13.94
2023-05-23T05:07:22.345Z,13.42
2023-05-23T05:09:53.178Z,13.91
2023-05-23T05:12:25.997Z,13.68
2023-05-23T05:14:52.854Z,16.84
2023-05-23T05:17:19.964Z,17.54
2023-05-23T05:20:01.585Z,17.22
2023-05-23T05:22:36.380Z,17.68
2023-05-23T05:25:15.780Z,17.63
2023-05-23T05:27:43.298Z,17.56
2023-05-23T05:30:14.716Z,17.49
2023-05-23T05:32:50.080Z,17.56
2023-05-23T05:35:19.614Z,17.61
2023-05-23T05:37:49.177Z,17.19
2023-05-23T05:40:18.302Z,17.19
2023-05-23T05:42:45.677Z,17.63
2023-05-23T05:45:12.563Z,17.52
2023-05-23T05:47:58.460Z,17.96
2023-05-23T05:50:34.282Z,17.88
2023-05-23T05:53:01.391Z,17.32
2023-05-23T05:55:29.694Z,17.37
2023-05-23T05:57:56.903Z,17.69
2023-05-23T06:00:29.473Z,17.52
2023-05-23T06:02:57.745Z,18.30
2023-05-23T06:05:39.837Z,18.52
2023-05-23T06:08:09.123Z,17.96
2023-05-23T06:10:41.788Z,18.63
2023-05-23T06:13:11.250Z,18.45
2023-05-23T06:15:42.647Z,18.66
2023-05-23T06:18:09.822Z,18.51
2023-05-23T06:20:36.814Z,18.32
2023-05-23T06:23:14.323Z,18.36
2023-05-23T06:25:50.438Z,18.79
2023-05-23T06:28:26.366Z,18.92
2023-05-23T06:31:18.724Z,19.25
2023-05-23T06:33:45.673Z,19.09
2023-05-23T06:36:14.819Z,18.94
2023-05-23T06:38:41.859Z,19.45
2023-05-23T06:41:10.559Z,19.57
2023-05-23T06:43:37.787Z,18.97
2023-05-23T06:46:25.215Z,19.10
2023-05-23T06:49:06.938Z,18.95
2023-05-23T06:51:42.034Z,19.10
2023-05-23T06:54:13.803Z,19.10
2023-05-23T06:56:41.399Z,18.98
2023-05-23T06:59:08.261Z,19.07
2023-05-23T07:01:37.466Z,19.56
2023-05-23T07:04:06.763Z,19.38
2023-05-23T07:06:36.469Z,19.70
2023-05-23T07:09:07.512Z,19.75
2023-05-23T07:11:35.653Z,19.36
2023-05-23T07:14:02.594Z,19.04
2023-05-23T07:16:39.646Z,19.53
2023-05-23T07:19:08.051Z,18.37
2023-05-23T07:21:41.423Z,19.81
2023-05-23T07:24:17.159Z,19.25
2023-05-23T07:27:03.807Z,19.78
2023-05-23T07:29:32.294Z,20.02
2023-05-23T07:32:03.823Z,20.22
2023-05-23T07:34:38.194Z,19.35
2023-05-23T07:37:07.741Z,21.06
2023-05-23T07:39:44.834Z,20.73
2023-05-23T07:42:16.221Z,21.43
2023-05-23T07:44:45.643Z,21.35
2023-05-23T07:47:17.469Z,21.30
2023-05-23T07:49:45.268Z,21.50
2023-05-23T07:52:12.132Z,21.46
2023-05-23T07:54:42.050Z,21.53
2023-05-23T07:57:16.951Z,21.84
2023-05-23T07:59:47.328Z,21.98
2023-05-23T08:02:18.026Z,21.91
2023-05-23T08:04:46.782Z,22.26
2023-05-23T08:07:16.269Z,22.23
2023-05-23T08:09:50.177Z,22.00
2023-05-23T08:12:19.833Z,22.76
2023-05-23T08:14:53.050Z,22.28
2023-05-23T08:17:30.802Z,22.67
2023-05-23T08:20:02.478Z,22.01
2023-05-23T08:22:30.955Z,22.35
2023-05-23T08:24:58.239Z,22.50
2023-05-23T08:27:27.008Z,23.11
2023-05-23T08:29:58.250Z,22.34
2023-05-23T08:32:25.203Z,22.41
2023-05-23T08:34:52.442Z,22.98
2023-05-23T08:37:19.329Z,23.15
2023-05-23T08:39:52.324Z,23.07
2023-05-23T08:42:40.698Z,23.08
2023-05-23T08:45:12.753Z,23.26
2023-05-23T08:47:49.255Z,23.53
2023-05-23T08:50:22.000Z,23.90
2023-05-23T08:52:57.356Z,24.37
2023-05-23T08:55:29.442Z,24.57
2023-05-23T08:58:02.878Z,23.27
2023-05-23T09:00:50.588Z,24.18
2023-05-23T09:03:18.104Z,24.72
2023-05-23T09:06:09.271Z,23.95
2023-05-23T09:08:41.167Z,24.92
2023-05-23T09:11:13.888Z,24.44
2023-05-23T09:13:49.913Z,24.76
2023-05-23T09:16:18.643Z,24.22
2023-05-23T09:18:51.614Z,24.39
2023-05-23T09:21:24.445Z,24.54
2023-05-23T09:23:58.584Z,24.70
2023-05-23T09:26:28.416Z,24.90
2023-05-23T09:29:02.062Z,25.01
2023-05-23T09:31:32.254Z,25.66
2023-05-23T09:34:04.278Z,25.70
2023-05-23T09:36:34.251Z,25.71
2023-05-23T09:39:05.636Z,24.93
2023-05-23T09:41:40.284Z,26.11
2023-05-23T09:44:11.334Z,25.64
2023-05-23T09:46:38.933Z,25.97
2023-05-23T09:49:24.326Z,25.92
2023-05-23T09:52:01.368Z,25.55
2023-05-23T09:54:28.267Z,26.32
2023-05-23T09:56:57.413Z,26.75
2023-05-23T09:59:29.269Z,27.08
2023-05-23T10:02:09.612Z,26.56
2023-05-23T10:04:45.912Z,27.05
2023-05-23T10:07:16.107Z,26.56
2023-05-23T10:09:50.490Z,26.59
2023-05-23T10:12:32.684Z,27.47
2023-05-23T10:15:11.051Z,27.80
2023-05-23T10:17:57.899Z,28.07
2023-05-23T10:20:27.753Z,28.61
2023-05-23T10:23:03.770Z,28.92
2023-05-23T10:25:39.195Z,28.56
2023-05-23T10:28:06.265Z,27.61
2023-05-23T10:30:37.938Z,27.17
2023-05-23T10:33:09.088Z,27.44
2023-05-23T10:35:40.000Z,27.10
2023-05-23T10:38:22.574Z,26.91
2023-05-23T10:40:59.138Z,26.87
2023-05-23T10:43:31.668Z,26.28
2023-05-23T10:46:01.663Z,25.84
2023-05-23T10:48:35.005Z,26.88
2023-05-23T10:51:11.698Z,26.95
2023-05-23T10:53:43.564Z,27.44
2023-05-23T10:56:11.844Z,28.34
2023-05-23T10:58:41.236Z,27.96
2023-05-23T11:01:16.607Z,28.96
2023-05-23T11:03:46.691Z,28.99
2023-05-23T11:06:32.995Z,29.13
2023-05-23T11:09:08.170Z,28.31
2023-05-23T11:11:54.160Z,28.68
2023-05-23T11:14:38.127Z,28.65
2023-05-23T11:17:13.530Z,28.54
2023-05-23T11:19:41.705Z,27.97
2023-05-23T11:22:09.755Z,27.99
2023-05-23T11:24:53.809Z,28.37
2023-05-23T11:27:36.169Z,28.89
2023-05-23T11:30:18.743Z,29.11
2023-05-23T11:32:54.549Z,28.63
2023-05-23T11:35:24.941Z,27.96
2023-05-23T11:37:51.815Z,27.63
2023-05-23T11:40:40.551Z,28.40
2023-05-23T11:43:11.034Z,28.93
2023-05-23T11:45:41.143Z,28.07
2023-05-23T11:48:16.636Z,28.15
2023-05-23T11:50:45.172Z,27.53
2023-05-23T11:53:17.664Z,28.10
2023-05-23T11:55:53.780Z,28.14
2023-05-23T11:58:33.175Z,28.40
2023-05-23T12:01:05.552Z,28.00
2023-05-23T12:03:33.077Z,28.60
2023-05-23T12:06:02.002Z,28.49
2023-05-23T12:12:56.874Z,26.84
2023-05-23T12:15:30.130Z,26.45
2023-05-23T12:18:00.753Z,27.35
2023-05-23T12:20:35.131Z,32.22
2023-05-23T12:23:06.876Z,29.39
2023-05-23T12:25:46.846Z,31.32
2023-05-23T12:28:17.104Z,31.59
2023-05-23T12:30:44.784Z,32.08
2023-05-23T12:33:14.437Z,30.93
2023-05-23T12:35:49.711Z,33.49
2023-05-23T12:38:20.282Z,33.81
2023-05-23T12:40:47.192Z,33.34
2023-05-23T12:43:20.414Z,34.78
2023-05-23T12:45:49.498Z,33.23
2023-05-23T12:48:19.079Z,32.34
2023-05-23T12:50:46.297Z,31.54
2023-05-23T12:53:15.584Z,32.46
2023-05-23T12:55:44.600Z,31.55
2023-05-23T12:58:11.563Z,32.34
2023-05-23T13:00:38.491Z,33.89
2023-05-23T13:03:10.200Z,33.74
2023-05-23T13:05:37.206Z,33.56
2023-05-23T13:08:09.670Z,31.92
2023-05-23T13:10:37.377Z,30.18
2023-05-23T13:13:06.775Z,32.34
2023-05-23T13:15:34.169Z,33.06
2023-05-23T13:18:02.173Z,32.11
2023-05-23T13:20:31.787Z,31.18
2023-05-23T13:22:58.874Z,32.74
2023-05-23T13:25:26.353Z,34.58
2023-05-23T13:27:53.850Z,36.62
2023-05-23T13:30:22.462Z,36.29
2023-05-23T13:32:57.687Z,34.89
2023-05-23T13:35:26.752Z,35.13
2023-05-23T13:37:53.845Z,35.11
2023-05-23T13:40:21.734Z,36.31
2023-05-23T13:42:51.039Z,36.62
2023-05-23T13:45:23.032Z,36.76
2023-05-23T13:47:52.606Z,36.37
2023-05-23T13:50:19.804Z,36.12
2023-05-23T13:52:49.036Z,36.39
2023-05-23T13:55:16.702Z,36.08
2023-05-23T13:57:46.443Z,34.49
2023-05-23T14:00:16.423Z,34.62
2023-05-23T14:02:45.518Z,34.43
2023-05-23T14:05:19.570Z,35.21
2023-05-23T14:07:53.805Z,36.24
2023-05-23T14:10:23.608Z,35.28
2023-05-23T14:12:51.019Z,36.18
2023-05-23T14:15:18.514Z,36.61
2023-05-23T14:17:45.440Z,35.96
2023-05-23T14:20:18.460Z,36.08
2023-05-23T14:22:45.581Z,37.12
2023-05-23T14:25:12.426Z,38.11
2023-05-23T14:27:41.937Z,38.90
2023-05-23T14:30:11.898Z,39.38
2023-05-23T14:32:41.940Z,38.20
2023-05-23T14:35:11.111Z,36.46
2023-05-23T14:37:38.650Z,36.69
2023-05-23T14:40:10.176Z,37.51
2023-05-23T14:42:39.410Z,38.61
2023-05-23T14:45:07.140Z,39.73
2023-05-23T14:47:34.287Z,39.87
2023-05-23T14:50:01.611Z,38.63
2023-05-23T14:52:30.951Z,36.31
2023-05-23T14:55:05.401Z,34.94
2023-05-23T14:57:34.537Z,33.41
2023-05-23T15:00:05.779Z,33.67
2023-05-23T15:02:35.445Z,35.26
2023-05-23T15:05:08.020Z,35.83
2023-05-23T15:07:35.719Z,35.31
2023-05-23T15:10:03.478Z,35.03
2023-05-23T15:12:30.153Z,34.88
2023-05-23T15:15:03.365Z,33.73
2023-05-23T15:17:36.626Z,34.66
2023-05-23T15:20:07.689Z,34.50
2023-05-23T15:22:39.366Z,33.75
2023-05-23T15:25:08.062Z,33.56
2023-05-23T15:27:34.947Z,33.26
2023-05-23T15:30:02.967Z,32.35
2023-05-23T15:32:29.618Z,32.21
2023-05-23T15:34:56.716Z,31.38
2023-05-23T15:37:28.401Z,30.89
2023-05-23T15:39:57.256Z,30.23
2023-05-23T15:42:24.025Z,30.03
2023-05-23T15:44:51.305Z,30.09
2023-05-23T15:47:18.905Z,29.72
2023-05-23T15:49:45.722Z,30.59
2023-05-23T15:52:14.882Z,30.73
2023-05-23T15:54:47.422Z,30.44
2023-05-23T15:57:16.676Z,31.46
2023-05-23T15:59:43.848Z,31.12
2023-05-23T16:02:16.463Z,30.67
2023-05-23T16:04:47.067Z,30.57
2023-05-23T16:07:15.388Z,31.03
2023-05-23T16:09:50.939Z,30.68
2023-05-23T16:12:20.915Z,30.47
2023-05-23T16:14:53.075Z,29.28
2023-05-23T16:17:23.238Z,29.76
2023-05-23T16:19:51.275Z,29.27
2023-05-23T16:22:20.835Z,28.65
2023-05-23T16:24:55.293Z,29.22
2023-05-23T16:27:23.744Z,28.59
2023-05-23T16:29:50.814Z,28.06
2023-05-23T16:32:17.569Z,28.83
2023-05-23T16:34:49.451Z,28.40
2023-05-23T16:37:21.914Z,28.11
2023-05-23T16:39:49.084Z,28.05
2023-05-23T16:42:16.296Z,27.86
2023-05-23T16:44:44.338Z,27.62
2023-05-23T16:47:18.066Z,26.80
2023-05-23T16:49:53.673Z,26.99
2023-05-23T16:52:20.807Z,27.47
2023-05-23T16:54:47.765Z,27.66
2023-05-23T16:57:17.355Z,26.92
2023-05-23T16:59:49.966Z,26.74
2023-05-23T17:02:19.118Z,26.73
2023-05-23T17:04:46.627Z,27.20
2023-05-23T17:07:22.459Z,27.23
2023-05-23T17:09:51.477Z,27.10
2023-05-23T17:12:19.500Z,26.00
2023-05-23T17:14:49.436Z,25.04
2023-05-23T17:17:18.826Z,22.18
2023-05-23T17:19:55.439Z,23.39
2023-05-23T17:22:24.872Z,22.80
2023-05-23T17:24:51.817Z,20.95
2023-05-23T17:27:18.589Z,22.19
2023-05-23T17:29:47.726Z,21.53
2023-05-23T17:32:14.895Z,21.72
2023-05-23T17:34:42.857Z,21.70
2023-05-23T17:37:11.952Z,21.44
2023-05-23T17:39:38.823Z,21.15
2023-05-23T17:42:05.871Z,20.20
2023-05-23T17:44:40.573Z,20.11
2023-05-23T17:47:09.545Z,20.83
2023-05-23T17:49:49.176Z,20.41
2023-05-23T17:52:16.798Z,19.69
2023-05-23T17:54:44.608Z,20.38
2023-05-23T17:57:11.621Z,19.56
2023-05-23T17:59:41.011Z,20.20
2023-05-23T18:02:10.800Z,19.84
2023-05-23T18:04:38.816Z,19.79
2023-05-23T18:07:18.542Z,20.12
2023-05-23T18:09:48.751Z,19.63
2023-05-23T18:12:18.179Z,20.12
2023-05-23T18:14:46.979Z,19.59
2023-05-23T18:17:17.591Z,19.50
2023-05-23T18:19:52.126Z,20.03
2023-05-23T18:22:21.115Z,19.72
2023-05-23T18:24:51.906Z,19.11
2023-05-23T18:27:18.847Z,18.80
2023-05-23T18:29:50.442Z,18.90
2023-05-23T18:32:27.909Z,19.45
2023-05-23T18:34:56.945Z,18.92
2023-05-23T18:37:24.048Z,19.42
2023-05-23T18:39:59.369Z,19.85
2023-05-23T18:42:26.342Z,18.86
2023-05-23T18:44:53.499Z,19.78
2023-05-23T18:47:20.318Z,19.07
2023-05-23T18:49:49.970Z,18.85
2023-05-23T18:52:16.764Z,19.83
2023-05-23T18:54:47.353Z,20.05
2023-05-23T18:57:14.621Z,19.46
2023-05-23T18:59:49.466Z,19.34
2023-05-23T19:02:18.635Z,19.62
2023-05-23T19:04:55.866Z,19.07
2023-05-23T19:07:22.656Z,18.85
2023-05-23T19:09:54.422Z,18.78
2023-05-23T19:12:24.669Z,18.28
2023-05-23T19:14:52.131Z,18.92
2023-05-23T19:17:21.838Z,18.55
2023-05-23T19:19:51.331Z,18.93
2023-05-23T19:22:20.480Z,18.72
2023-05-23T19:24:49.950Z,19.62
2023-05-23T19:27:16.965Z,19.03
2023-05-23T19:29:48.443Z,19.73
2023-05-23T19:32:15.276Z,19.77
2023-05-23T19:34:44.986Z,19.22
2023-05-23T19:37:14.544Z,19.45
2023-05-23T19:39:46.003Z,19.95
2023-05-23T19:42:18.239Z,19.41
2023-05-23T19:44:48.277Z,19.56
2023-05-23T19:47:17.908Z,19.68
2023-05-23T19:49:46.837Z,19.94
2023-05-23T19:52:14.294Z,20.06
2023-05-23T19:54:46.700Z,19.43
2023-05-23T19:57:16.400Z,18.90
2023-05-23T19:59:43.184Z,19.43
2023-05-23T20:02:10.224Z,19.34
2023-05-23T20:04:41.810Z,19.46
2023-05-23T20:07:14.078Z,19.32
2023-05-23T20:09:41.545Z,19.83
2023-05-23T20:12:10.812Z,19.33
2023-05-23T20:14:37.702Z,19.54
2023-05-23T20:17:08.376Z,18.90
2023-05-23T20:19:35.333Z,19.25
2023-05-23T20:22:02.497Z,18.80
2023-05-23T20:24:33.841Z,18.95
2023-05-23T20:27:01.157Z,19.35
2023-05-23T20:29:27.946Z,19.81
2023-05-23T20:31:57.146Z,19.12
2023-05-23T20:34:23.950Z,19.91
2023-05-23T20:36:50.925Z,19.10
2023-05-23T20:39:20.075Z,18.64
2023-05-23T20:41:53.826Z,18.44
2023-05-23T20:44:20.791Z,18.29
2023-05-23T20:46:50.081Z,19.18
2023-05-23T20:49:19.283Z,18.05
2023-05-23T20:51:46.249Z,19.35
2023-05-23T20:54:16.044Z,18.29
2023-05-23T20:56:42.947Z,19.55
2023-05-23T20:59:12.384Z,19.49
2023-05-23T21:01:40.274Z,19.14
2023-05-23T21:04:09.662Z,18.20
2023-05-23T21:06:37.075Z,18.19
2023-05-23T21:09:06.449Z,19.07
2023-05-23T21:11:33.154Z,19.14
2023-05-23T21:14:02.903Z,19.11
2023-05-23T21:16:31.884Z,18.75
2023-05-23T21:19:00.375Z,18.45
2023-05-23T21:21:27.251Z,18.40
2023-05-23T21:23:54.020Z,18.74
2023-05-23T21:26:21.088Z,18.21
2023-05-23T21:28:48.705Z,18.15
2023-05-23T21:31:18.350Z,19.18
2023-05-23T21:33:49.177Z,18.57
2023-05-23T21:36:15.959Z,17.80
2023-05-23T21:38:45.083Z,18.80
2023-05-23T21:41:11.958Z,18.06
2023-05-23T21:43:38.885Z,17.97
2023-05-23T21:46:05.707Z,18.05
2023-05-23T21:48:32.476Z,18.30
2023-05-23T21:50:59.409Z,17.96
2023-05-23T21:53:26.270Z,18.08
2023-05-23T21:55:53.088Z,18.93
2023-05-23T21:58:19.892Z,18.04
2023-05-23T22:00:49.044Z,17.81
2023-05-23T22:03:16.057Z,18.52
2023-05-23T22:05:42.905Z,17.19
2023-05-23T22:08:09.955Z,17.97
2023-05-23T22:10:40.534Z,18.17
2023-05-23T22:13:10.051Z,18.21
2023-05-23T22:15:39.129Z,19.08
2023-05-23T22:18:08.186Z,19.07
2023-05-23T22:20:38.857Z,19.05
2023-05-23T22:23:09.809Z,18.74
2023-05-23T22:25:38.341Z,18.14
2023-05-23T22:28:05.120Z,17.83
2023-05-23T22:30:34.300Z,17.38
2023-05-23T22:33:12.895Z,16.35
2023-05-23T22:35:40.970Z,17.95
2023-05-23T22:38:09.976Z,18.78
2023-05-23T22:40:39.974Z,18.75
2023-05-23T22:43:07.708Z,18.72
2023-05-23T22:45:43.357Z,17.27
2023-05-23T22:48:11.430Z,18.62
2023-05-23T22:50:41.840Z,17.69
2023-05-23T22:53:09.063Z,17.48
2023-05-23T22:55:39.197Z,17.79
2023-05-23T22:58:09.013Z,18.35
2023-05-23T23:00:38.357Z,17.48
2023-05-23T23:03:10.054Z,17.28
2023-05-23T23:05:37.073Z,17.24
2023-05-23T23:08:04.076Z,17.37
2023-05-23T23:10:33.410Z,18.56
2023-05-23T23:13:00.180Z,17.51
2023-05-23T23:15:27.320Z,18.22
2023-05-23T23:17:56.801Z,17.06
2023-05-23T23:20:23.669Z,16.43
2023-05-23T23:22:50.677Z,17.04
2023-05-23T23:25:18.879Z,17.79
2023-05-23T23:27:45.678Z,17.44
2023-05-23T23:30:12.872Z,18.09
2023-05-23T23:32:39.690Z,16.96
2023-05-23T23:35:09.292Z,16.44
2023-05-23T23:37:36.360Z,17.11
2023-05-23T23:40:05.299Z,17.24
2023-05-23T23:42:34.491Z,17.45
2023-05-23T23:45:01.702Z,18.72
2023-05-23T23:47:28.601Z,18.62
2023-05-23T23:49:59.907Z,18.42
2023-05-23T23:52:30.799Z,18.58
2023-05-23T23:55:00.488Z,18.17
2023-05-23T23:57:27.377Z,17.46
2023-05-23T23:59:54.307Z,18.23
